1979 04B (1979259N11078)


On this page: IBTrACS data - Map and Plots - Positions - Intensities - Original source data

Summary

Start Sep 16
End Sep 25
Basin NI
LMI 55 kt
Sources jtwc_io
td9636
ds824_ni
In WMO? No
Previous storm 1979 HENRI (NA)
Previous in basin 1979 03B (WP)
Concurrent storms 1979 MAC (WP)
1979 NANCY (WP)
1979 HENRI (NA)
1979 04B (NI)
1979 MISSING (NA)
1979 OWEN (WP)
1979 05B (NI)
1979 PAMELA (WP)
Next in basin 1979 05B (NI)
Next storm 1979 MISSING (NA)

top of page IBTrACS Data: File Access

top of page HURSAT Data: File Access

Image of storm

top of page Plots:

Map of storm track will not appear if FTP is down
Time series of cyclone Maximum Sustained Wind will not appear if FTP is down
Time series of cyclone Minimum Central Pressure will not appear if FTP is down

top of page Track Data:Position

jtwc_io td9636 ds824_ni
Date Lat Lon Lat Lon Lat Lon
1979-09-16 00:00:00 10.5 78.0 10.5 78.0 10.5 78.0
1979-09-16 06:00:00 10.8 77.2 10.8 77.2 10.8 77.2
1979-09-16 12:00:00 11.0 76.4 11.0 76.4 11.0 76.4
1979-09-16 18:00:00 11.0 75.7 11.1 75.7 11.0 75.7
1979-09-17 00:00:00 11.1 75.1 11.1 75.1 11.1 75.1
1979-09-17 06:00:00 11.3 74.3 11.3 74.3 11.3 74.3
1979-09-17 12:00:00 11.6 73.6 11.6 73.6 11.6 73.6
1979-09-17 18:00:00 11.7 73.3 11.7 73.3 11.7 73.3
1979-09-18 00:00:00 11.9 73.2 11.9 73.2 11.9 73.2
1979-09-18 06:00:00 12.2 72.8 12.2 72.9 12.2 72.8
1979-09-18 12:00:00 12.6 72.5 12.6 72.5 12.6 72.5
1979-09-18 18:00:00 13.0 72.3 13.0 72.2 13.0 72.3
1979-09-19 00:00:00 13.4 72.0 13.4 72.0 13.4 72.0
1979-09-19 06:00:00 13.8 71.8 13.8 71.8 13.8 71.8
1979-09-19 12:00:00 14.2 71.5 14.2 71.5 14.2 71.5
1979-09-19 18:00:00 14.5 71.3 14.4 71.2 14.5 71.3
1979-09-20 00:00:00 14.8 71.0 14.8 71.0 14.8 71.0
1979-09-20 06:00:00 15.5 70.8 15.5 70.7 15.5 70.8
1979-09-20 12:00:00 16.3 70.5 16.3 70.5 16.3 70.5
1979-09-20 18:00:00 16.6 70.3 16.6 70.3 16.6 70.3
1979-09-21 00:00:00 16.9 70.1 16.9 70.1 16.9 70.1
1979-09-21 06:00:00 17.5 69.6 17.5 69.6 17.5 69.6
1979-09-21 12:00:00 18.1 69.0 18.1 69.0 18.1 69.0
1979-09-21 18:00:00 18.4 68.3 18.4 68.3 18.4 68.3
1979-09-22 00:00:00 18.6 67.5 18.6 67.5 18.6 67.5
jtwc_io td9636 ds824_ni
1979-09-22 06:00:00 19.0 66.5 19.0 66.5 19.0 66.5
1979-09-22 12:00:00 19.3 65.4 19.3 65.4 19.3 65.4
1979-09-22 18:00:00 19.4 64.4 19.4 64.5 19.4 64.4
1979-09-23 00:00:00 19.5 63.5 19.5 63.5 19.5 63.5
1979-09-23 06:00:00 19.6 62.3 19.6 62.3 19.6 62.3
1979-09-23 12:00:00 19.6 61.2 19.6 61.2 19.6 61.2
1979-09-23 18:00:00 19.6 60.6 19.6 60.5 19.6 60.6
1979-09-24 00:00:00 19.6 59.9 19.6 59.9 19.6 59.9
1979-09-24 06:00:00 19.6 59.3 19.5 59.3 19.6 59.3
1979-09-24 12:00:00 19.5 58.6 19.5 58.6 19.5 58.6
1979-09-24 18:00:00 19.6 57.9 19.6 57.8 19.6 57.9
1979-09-25 00:00:00 19.9 57.0 19.9 57.0 19.9 57.0

top of pageTrack Data:Intensity

jtwc_io td9636 ds824_ni
Date Wind Pres Wind Pres Wind Pres
1979-09-16 00:00:00
1979-09-16 06:00:00
1979-09-16 12:00:00
1979-09-16 18:00:00
1979-09-17 00:00:00
1979-09-17 06:00:00
1979-09-17 12:00:00
1979-09-17 18:00:00
1979-09-18 00:00:00 15. 15.
1979-09-18 06:00:00 15. 15.
1979-09-18 12:00:00 15. 15.
1979-09-18 18:00:00 15. 15.
1979-09-19 00:00:00 20. 20.
1979-09-19 06:00:00 20. 20.
1979-09-19 12:00:00 20. 20.
1979-09-19 18:00:00 20. 20.
1979-09-20 00:00:00 20. 20.
1979-09-20 06:00:00 25. 25.
1979-09-20 12:00:00 25. 25.
1979-09-20 18:00:00 25. 25.
1979-09-21 00:00:00 25. 25.
1979-09-21 06:00:00 25. 25.
1979-09-21 12:00:00 30. 30.
1979-09-21 18:00:00 35. 35.
1979-09-22 00:00:00 40. 40.
jtwc_io td9636 ds824_ni
1979-09-22 06:00:00 45. 45.
1979-09-22 12:00:00 45. 45.
1979-09-22 18:00:00 50. 50.
1979-09-23 00:00:00 55. 55.
1979-09-23 06:00:00 50. 50.
1979-09-23 12:00:00 45. 45.
1979-09-23 18:00:00 40. 40.
1979-09-24 00:00:00 35. 35.
1979-09-24 06:00:00 30. 30.
1979-09-24 12:00:00 30. 30.
1979-09-24 18:00:00 25. 25.
1979-09-25 00:00:00 20. 20.

top of page Links to source data

Source Source file Format
jtwc_io bio041979.txt ATCF
td9636 cons_worldwide_trop_cyclone_18710101-19891231-004:Line=12125 TD 9636
ds824_ni n_ind.dat:1301:04B HURDAT